createdAt,value
2022-11-29T00:00:08.701Z,6.22
2022-11-29T00:02:40.094Z,6.52
2022-11-29T00:05:08.898Z,6.43
2022-11-29T00:07:38.918Z,6.56
2022-11-29T00:10:08.525Z,6.35
2022-11-29T00:12:37.251Z,6.60
2022-11-29T00:15:06.093Z,6.60
2022-11-29T00:17:35.034Z,6.41
2022-11-29T00:20:03.181Z,6.37
2022-11-29T00:22:32.889Z,6.62
2022-11-29T00:25:05.416Z,6.60
2022-11-29T00:27:34.099Z,6.49
2022-11-29T00:30:02.689Z,6.61
2022-11-29T00:32:31.868Z,6.60
2022-11-29T00:35:03.997Z,6.59
2022-11-29T00:37:34.349Z,6.57
2022-11-29T00:40:03.296Z,6.59
2022-11-29T00:42:32.515Z,6.58
2022-11-29T00:45:01.318Z,6.39
2022-11-29T00:47:29.742Z,6.42
2022-11-29T00:49:57.561Z,6.38
2022-11-29T00:52:27.098Z,6.52
2022-11-29T00:54:55.260Z,6.56
2022-11-29T00:57:22.915Z,6.44
2022-11-29T00:59:50.786Z,6.39
2022-11-29T01:02:19.523Z,6.49
2022-11-29T01:04:46.502Z,6.50
2022-11-29T01:07:13.231Z,6.61
2022-11-29T01:09:39.766Z,6.60
2022-11-29T01:12:06.571Z,6.49
2022-11-29T01:14:33.150Z,6.22
2022-11-29T01:16:59.702Z,6.58
2022-11-29T01:19:26.255Z,6.57
2022-11-29T01:21:52.845Z,6.58
2022-11-29T01:24:19.357Z,6.61
2022-11-29T01:26:45.919Z,6.62
2022-11-29T01:29:13.098Z,6.61
2022-11-29T01:31:39.676Z,6.62
2022-11-29T01:34:07.137Z,6.64
2022-11-29T01:36:35.273Z,6.64
2022-11-29T01:39:04.149Z,6.62
2022-11-29T01:41:33.173Z,6.63
2022-11-29T01:44:25.778Z,6.57
2022-11-29T01:46:54.550Z,6.63
2022-11-29T01:49:42.575Z,6.58
2022-11-29T01:52:16.399Z,6.66
2022-11-29T01:54:47.026Z,6.60
2022-11-29T01:57:14.382Z,6.70
2022-11-29T01:59:45.525Z,6.72
2022-11-29T02:02:40.168Z,6.73
2022-11-29T02:05:07.816Z,6.73
2022-11-29T02:07:34.493Z,6.75
2022-11-29T02:10:02.233Z,6.66
2022-11-29T02:12:50.591Z,6.77
2022-11-29T02:15:52.036Z,6.77
2022-11-29T02:18:46.672Z,6.68
2022-11-29T02:21:44.268Z,6.75
2022-11-29T02:24:28.811Z,6.77
2022-11-29T02:27:17.395Z,6.73
2022-11-29T02:30:07.675Z,6.71
2022-11-29T02:32:49.298Z,6.83
2022-11-29T02:35:28.509Z,6.56
2022-11-29T02:38:04.640Z,6.84
2022-11-29T02:40:59.821Z,6.86
2022-11-29T02:43:57.865Z,6.89
2022-11-29T02:46:51.553Z,6.91
2022-11-29T02:49:44.739Z,6.88
2022-11-29T02:52:50.214Z,6.88
2022-11-29T02:55:33.406Z,6.88
2022-11-29T02:58:16.725Z,6.90
2022-11-29T03:01:16.472Z,6.92
2022-11-29T03:04:00.867Z,6.93
2022-11-29T03:06:44.349Z,6.96
2022-11-29T03:09:42.771Z,6.87
2022-11-29T03:12:14.953Z,6.99
2022-11-29T03:14:47.612Z,7.02
2022-11-29T03:17:25.747Z,7.02
2022-11-29T03:20:16.969Z,7.05
2022-11-29T03:23:24.156Z,6.78
2022-11-29T03:25:57.284Z,7.01
2022-11-29T03:28:34.884Z,7.01
2022-11-29T03:31:05.871Z,6.69
2022-11-29T03:33:53.764Z,7.05
2022-11-29T03:36:29.056Z,6.99
2022-11-29T03:39:01.071Z,7.06
2022-11-29T03:41:36.578Z,6.98
2022-11-29T03:44:27.201Z,7.11
2022-11-29T03:47:02.142Z,7.00
2022-11-29T03:49:39.820Z,7.11
2022-11-29T03:52:42.188Z,7.10
2022-11-29T03:55:08.673Z,7.09
2022-11-29T03:58:04.876Z,7.10
2022-11-29T04:00:45.429Z,7.04
2022-11-29T04:03:25.572Z,7.00
2022-11-29T04:06:29.246Z,7.07
2022-11-29T04:09:46.891Z,7.00
2022-11-29T04:12:50.931Z,7.07
2022-11-29T04:15:29.645Z,7.08
2022-11-29T04:18:02.042Z,7.08
2022-11-29T04:20:50.412Z,7.09
2022-11-29T04:23:38.791Z,7.11
2022-11-29T04:26:35.022Z,7.10
2022-11-29T04:29:34.362Z,7.14
2022-11-29T04:32:26.662Z,7.18
2022-11-29T04:35:09.223Z,7.22
2022-11-29T04:38:00.056Z,7.12
2022-11-29T04:41:01.283Z,7.23
2022-11-29T04:44:05.177Z,7.25
2022-11-29T04:46:37.728Z,7.25
2022-11-29T04:49:42.118Z,7.26
2022-11-29T04:52:27.618Z,7.25
2022-11-29T04:55:08.076Z,7.27
2022-11-29T04:57:44.892Z,7.28
2022-11-29T05:00:19.929Z,7.31
2022-11-29T05:02:49.733Z,7.33
2022-11-29T05:05:46.332Z,7.32
2022-11-29T05:08:46.543Z,7.30
2022-11-29T05:11:26.291Z,7.37
2022-11-29T05:14:15.366Z,7.36
2022-11-29T05:17:12.862Z,7.37
2022-11-29T05:19:55.415Z,7.39
2022-11-29T05:22:34.266Z,7.37
2022-11-29T05:25:24.412Z,7.39
2022-11-29T05:28:02.501Z,7.34
2022-11-29T05:31:01.324Z,7.26
2022-11-29T05:33:55.596Z,7.37
2022-11-29T05:36:22.039Z,7.31
2022-11-29T05:38:54.462Z,7.36
2022-11-29T05:41:45.460Z,7.01
2022-11-29T05:44:53.455Z,7.39
2022-11-29T05:47:31.556Z,7.37
2022-11-29T05:50:04.242Z,7.36
2022-11-29T05:52:43.921Z,7.36
2022-11-29T05:55:22.243Z,7.40
2022-11-29T05:58:03.222Z,7.37
2022-11-29T06:00:40.923Z,7.44
2022-11-29T06:03:17.820Z,7.38
2022-11-29T06:05:57.443Z,7.39
2022-11-29T06:08:47.808Z,7.45
2022-11-29T06:11:21.824Z,7.36
2022-11-29T06:14:00.133Z,7.42
2022-11-29T06:16:56.972Z,7.39
2022-11-29T06:19:42.312Z,7.40
2022-11-29T06:22:39.831Z,7.39
2022-11-29T06:25:24.230Z,7.40
2022-11-29T06:28:28.455Z,7.40
2022-11-29T06:31:08.513Z,7.39
2022-11-29T06:33:56.915Z,7.42
2022-11-29T06:36:31.704Z,7.44
2022-11-29T06:38:58.426Z,7.38
2022-11-29T06:41:25.350Z,7.42
2022-11-29T06:43:52.255Z,7.39
2022-11-29T06:46:37.468Z,7.46
2022-11-29T06:49:06.673Z,7.53
2022-11-29T06:51:44.200Z,7.44
2022-11-29T06:54:38.587Z,7.57
2022-11-29T06:57:31.456Z,7.59
2022-11-29T07:00:20.433Z,7.55
2022-11-29T07:03:34.497Z,7.63
2022-11-29T07:06:08.279Z,7.85
2022-11-29T07:08:34.882Z,8.04
2022-11-29T07:11:01.587Z,8.15
2022-11-29T07:13:28.376Z,8.14
2022-11-29T07:15:54.872Z,8.20
2022-11-29T07:18:43.005Z,8.19
2022-11-29T07:21:35.492Z,8.08
2022-11-29T07:24:40.490Z,8.16
2022-11-29T07:27:10.578Z,8.08
2022-11-29T07:29:45.870Z,8.16
2022-11-29T07:32:44.643Z,8.15
2022-11-29T07:35:33.535Z,8.15
2022-11-29T07:38:10.105Z,8.13
2022-11-29T07:40:51.277Z,8.10
2022-11-29T07:43:36.161Z,8.15
2022-11-29T07:46:02.819Z,8.13
2022-11-29T07:48:29.330Z,7.79
2022-11-29T07:50:56.800Z,8.15
2022-11-29T07:53:23.889Z,8.15
2022-11-29T07:55:50.533Z,8.12
2022-11-29T07:58:19.613Z,8.09
2022-11-29T08:00:46.600Z,8.13
2022-11-29T08:03:13.220Z,8.02
2022-11-29T08:05:44.656Z,8.09
2022-11-29T08:08:11.126Z,8.06
2022-11-29T08:10:38.545Z,8.13
2022-11-29T08:13:05.081Z,8.11
2022-11-29T08:15:31.635Z,8.05
2022-11-29T08:17:58.250Z,8.03
2022-11-29T08:20:24.881Z,8.11
2022-11-29T08:22:55.964Z,8.07
2022-11-29T08:25:22.719Z,8.12
2022-11-29T08:27:49.508Z,8.03
2022-11-29T08:30:18.726Z,8.03
2022-11-29T08:32:51.145Z,8.01
2022-11-29T08:35:19.551Z,7.77
2022-11-29T08:37:46.084Z,7.89
2022-11-29T08:40:13.588Z,7.96
2022-11-29T08:42:40.149Z,7.81
2022-11-29T08:45:07.708Z,7.92
2022-11-29T08:47:37.168Z,7.87
2022-11-29T08:50:07.340Z,8.00
2022-11-29T08:52:54.730Z,8.03
2022-11-29T08:55:23.836Z,8.03
2022-11-29T08:57:51.482Z,8.03
2022-11-29T09:00:19.113Z,8.03
2022-11-29T09:02:45.725Z,7.86
2022-11-29T09:05:12.290Z,7.89
2022-11-29T09:07:39.307Z,7.90
2022-11-29T09:10:08.354Z,8.00
2022-11-29T09:12:36.432Z,7.99
2022-11-29T09:15:09.287Z,7.96
2022-11-29T09:17:36.171Z,7.95
2022-11-29T09:20:03.212Z,7.98
2022-11-29T09:22:29.821Z,8.05
2022-11-29T09:24:56.324Z,7.98
2022-11-29T09:27:22.897Z,8.00
2022-11-29T09:29:49.425Z,7.97
2022-11-29T09:32:16.033Z,8.03
2022-11-29T09:34:42.711Z,7.90
2022-11-29T09:37:09.308Z,8.10
2022-11-29T09:39:35.866Z,8.15
2022-11-29T09:42:23.348Z,8.21
2022-11-29T09:45:07.564Z,7.81
2022-11-29T09:47:52.550Z,8.16
2022-11-29T09:50:44.093Z,8.18
2022-11-29T09:53:29.432Z,8.23
2022-11-29T09:56:12.264Z,8.26
2022-11-29T09:59:05.681Z,8.29
2022-11-29T10:01:40.142Z,8.21
2022-11-29T10:04:14.441Z,8.19
2022-11-29T10:06:45.724Z,8.25
2022-11-29T10:09:24.335Z,8.28
2022-11-29T10:12:06.878Z,8.22
2022-11-29T10:14:42.854Z,8.15
2022-11-29T10:17:40.397Z,8.08
2022-11-29T10:20:17.839Z,8.00
2022-11-29T10:23:04.628Z,8.01
2022-11-29T10:25:42.059Z,7.88
2022-11-29T10:28:14.440Z,8.13
2022-11-29T10:30:42.619Z,8.22
2022-11-29T10:33:22.106Z,8.24
2022-11-29T10:35:52.768Z,8.22
2022-11-29T10:38:34.497Z,8.23
2022-11-29T10:41:08.315Z,8.27
2022-11-29T10:43:37.310Z,8.32
2022-11-29T10:46:04.820Z,8.27
2022-11-29T10:48:34.119Z,8.37
2022-11-29T10:51:01.556Z,8.33
2022-11-29T10:53:36.180Z,8.26
2022-11-29T10:56:08.401Z,8.30
2022-11-29T10:58:35.851Z,8.36
2022-11-29T11:01:07.766Z,8.30
2022-11-29T11:04:07.288Z,8.22
2022-11-29T11:06:56.661Z,8.14
2022-11-29T11:10:03.042Z,8.28
2022-11-29T11:12:32.399Z,8.32
2022-11-29T11:15:28.400Z,8.25
2022-11-29T11:18:00.907Z,8.25
2022-11-29T11:20:30.465Z,8.26
2022-11-29T11:23:05.391Z,8.30
2022-11-29T11:25:38.088Z,8.41
2022-11-29T11:28:22.087Z,8.54
2022-11-29T11:30:50.067Z,8.51
2022-11-29T11:33:21.825Z,8.58
2022-11-29T11:36:00.788Z,8.59
2022-11-29T11:38:27.600Z,8.66
2022-11-29T11:41:21.194Z,8.62
2022-11-29T11:43:59.201Z,8.67
2022-11-29T11:47:01.932Z,8.65
2022-11-29T11:49:45.879Z,8.75
2022-11-29T11:52:25.816Z,8.73
2022-11-29T11:54:59.101Z,8.68
2022-11-29T11:57:26.654Z,8.29
2022-11-29T11:59:55.721Z,8.83
2022-11-29T12:02:48.367Z,8.60
2022-11-29T12:05:19.256Z,8.89
2022-11-29T12:08:08.692Z,8.94
2022-11-29T12:10:39.860Z,8.93
2022-11-29T12:13:16.062Z,8.88
2022-11-29T12:15:46.507Z,8.97
2022-11-29T12:18:21.065Z,8.68
2022-11-29T12:21:11.700Z,8.98
2022-11-29T12:23:52.751Z,9.01
2022-11-29T12:26:55.316Z,9.05
2022-11-29T12:29:15.817Z,9.04
2022-11-29T12:31:55.103Z,9.02
2022-11-29T12:34:43.755Z,8.93
2022-11-29T12:37:41.487Z,9.05
2022-11-29T12:40:24.762Z,9.03
2022-11-29T12:43:00.212Z,9.04
2022-11-29T12:45:58.581Z,9.06
2022-11-29T12:48:54.906Z,9.09
2022-11-29T12:51:55.490Z,9.10
2022-11-29T12:54:41.581Z,9.01
2022-11-29T12:57:26.633Z,9.06
2022-11-29T13:00:16.586Z,9.09
2022-11-29T13:03:28.077Z,9.09
2022-11-29T13:06:28.519Z,9.08
2022-11-29T13:09:30.372Z,9.08
2022-11-29T13:12:10.558Z,9.07
2022-11-29T13:14:55.916Z,9.03
2022-11-29T13:17:25.454Z,8.95
2022-11-29T13:20:10.542Z,9.02
2022-11-29T13:22:48.150Z,8.93
2022-11-29T13:25:23.014Z,8.94
2022-11-29T13:28:07.225Z,8.92
2022-11-29T13:30:35.166Z,8.93
2022-11-29T13:33:05.675Z,8.93
2022-11-29T13:35:40.409Z,8.93
2022-11-29T13:38:23.457Z,8.65
2022-11-29T13:40:56.011Z,8.98
2022-11-29T13:43:45.569Z,8.95
2022-11-29T13:46:37.026Z,8.96
2022-11-29T13:49:03.581Z,8.84
2022-11-29T13:51:40.542Z,8.89
2022-11-29T13:54:28.572Z,8.72
2022-11-29T13:57:09.641Z,8.89
2022-11-29T13:59:44.253Z,8.91
2022-11-29T14:02:32.193Z,8.74
2022-11-29T14:04:59.251Z,8.76
2022-11-29T14:07:26.657Z,8.93
2022-11-29T14:10:06.997Z,8.94
2022-11-29T14:12:52.459Z,8.98
2022-11-29T14:15:31.214Z,8.94
2022-11-29T14:18:01.255Z,8.86
2022-11-29T14:20:28.852Z,8.85
2022-11-29T14:23:04.593Z,8.83
2022-11-29T14:25:52.301Z,8.82
2022-11-29T14:28:22.313Z,8.75
2022-11-29T14:30:53.731Z,8.71
2022-11-29T14:33:49.053Z,8.62
2022-11-29T14:36:18.521Z,8.68
2022-11-29T14:38:51.455Z,8.64
2022-11-29T14:41:37.333Z,8.62
2022-11-29T14:44:14.146Z,8.56
2022-11-29T14:46:40.922Z,8.04
2022-11-29T14:49:25.313Z,8.47
2022-11-29T14:52:10.027Z,8.33
2022-11-29T14:55:10.838Z,8.24
2022-11-29T14:57:52.822Z,8.41
2022-11-29T15:00:34.797Z,8.37
2022-11-29T15:03:09.173Z,8.09
2022-11-29T15:05:39.091Z,7.99
2022-11-29T15:08:13.800Z,8.21
2022-11-29T15:10:44.581Z,7.89
2022-11-29T15:13:15.266Z,8.16
2022-11-29T15:16:05.762Z,8.11
2022-11-29T15:18:41.450Z,8.10
2022-11-29T15:22:03.923Z,8.07
2022-11-29T15:24:31.185Z,7.60
2022-11-29T15:26:59.813Z,7.85
2022-11-29T15:29:28.214Z,7.65
2022-11-29T15:31:58.412Z,8.03
2022-11-29T15:34:32.405Z,7.79
2022-11-29T15:36:59.987Z,7.96
2022-11-29T15:39:37.988Z,8.31
2022-11-29T15:42:11.973Z,7.90
2022-11-29T15:44:44.543Z,8.22
2022-11-29T15:47:20.892Z,8.03
2022-11-29T15:49:47.798Z,7.76
2022-11-29T15:52:24.280Z,8.07
2022-11-29T15:54:59.290Z,7.90
2022-11-29T15:57:31.619Z,7.98
2022-11-29T16:00:04.367Z,7.78
2022-11-29T16:02:34.971Z,7.85
2022-11-29T16:05:31.722Z,7.81
2022-11-29T16:08:04.987Z,7.79
2022-11-29T16:10:43.647Z,7.80
2022-11-29T16:13:25.633Z,7.77
2022-11-29T16:16:06.889Z,7.74
2022-11-29T16:18:33.641Z,7.21
2022-11-29T16:21:02.472Z,7.46
2022-11-29T16:23:42.804Z,7.72
2022-11-29T16:26:23.748Z,7.56
2022-11-29T16:28:52.446Z,7.69
2022-11-29T16:31:21.570Z,7.58
2022-11-29T16:33:50.558Z,7.66
2022-11-29T16:36:24.384Z,7.23
2022-11-29T16:39:08.803Z,7.69
2022-11-29T16:41:38.972Z,6.75
2022-11-29T16:44:26.495Z,7.35
2022-11-29T16:47:30.419Z,7.59
2022-11-29T16:50:03.076Z,7.51
2022-11-29T16:52:33.902Z,7.09
2022-11-29T16:55:00.878Z,7.35
2022-11-29T16:57:28.811Z,7.46
2022-11-29T16:59:55.446Z,7.28
2022-11-29T17:02:22.506Z,7.56
2022-11-29T17:04:50.488Z,7.63
2022-11-29T17:07:28.116Z,7.55
2022-11-29T17:09:55.168Z,7.46
2022-11-29T17:12:22.211Z,7.55
2022-11-29T17:14:48.780Z,7.63
2022-11-29T17:17:16.693Z,7.64
2022-11-29T17:19:43.283Z,7.64
2022-11-29T17:22:10.267Z,7.52
2022-11-29T17:24:41.068Z,7.58
2022-11-29T17:27:09.991Z,7.63
2022-11-29T17:29:36.539Z,7.67
2022-11-29T17:32:03.308Z,7.64
2022-11-29T17:34:30.150Z,7.50
2022-11-29T17:36:57.507Z,7.59
2022-11-29T17:39:24.085Z,7.42
2022-11-29T17:41:50.759Z,7.28
2022-11-29T17:44:17.457Z,7.59
2022-11-29T17:46:44.006Z,7.59
2022-11-29T17:49:10.833Z,7.34
2022-11-29T17:51:54.302Z,7.48
2022-11-29T17:54:24.393Z,7.29
2022-11-29T17:56:51.901Z,7.46
2022-11-29T17:59:18.598Z,7.51
2022-11-29T18:01:47.198Z,6.90
2022-11-29T18:04:14.006Z,7.05
2022-11-29T18:06:41.124Z,7.41
2022-11-29T18:09:10.453Z,7.34
2022-11-29T18:11:46.988Z,7.34
2022-11-29T18:14:17.070Z,7.32
2022-11-29T18:16:45.394Z,7.37
2022-11-29T18:19:14.670Z,7.34
2022-11-29T18:21:41.214Z,7.16
2022-11-29T18:24:08.341Z,7.25
2022-11-29T18:26:36.605Z,7.41
2022-11-29T18:29:04.858Z,7.31
2022-11-29T18:31:34.097Z,7.38
2022-11-29T18:34:02.583Z,7.29
2022-11-29T18:36:31.996Z,7.21
2022-11-29T18:39:01.095Z,7.10
2022-11-29T18:41:29.521Z,7.11
2022-11-29T18:43:58.952Z,7.13
2022-11-29T18:46:26.428Z,7.08
2022-11-29T18:48:52.992Z,6.90
2022-11-29T18:51:20.704Z,7.10
2022-11-29T18:53:47.613Z,7.07
2022-11-29T18:56:22.328Z,6.83
2022-11-29T18:58:58.617Z,7.03
2022-11-29T19:01:27.629Z,6.96
2022-11-29T19:03:56.725Z,6.88
2022-11-29T19:06:25.777Z,6.76
2022-11-29T19:08:53.419Z,6.91
2022-11-29T19:11:23.011Z,6.88
2022-11-29T19:13:56.296Z,6.86
2022-11-29T19:16:24.450Z,6.82
2022-11-29T19:18:52.802Z,6.69
2022-11-29T19:21:20.854Z,6.15
2022-11-29T19:23:55.867Z,6.73
2022-11-29T19:26:25.152Z,6.73
2022-11-29T19:28:52.111Z,6.67
2022-11-29T19:31:20.419Z,6.51
2022-11-29T19:33:47.394Z,6.77
2022-11-29T19:36:19.943Z,6.63
2022-11-29T19:38:51.748Z,6.73
2022-11-29T19:41:19.966Z,6.69
2022-11-29T19:43:47.462Z,6.65
2022-11-29T19:46:19.777Z,6.66
2022-11-29T19:48:47.493Z,6.72
2022-11-29T19:51:17.428Z,6.82
2022-11-29T19:53:44.906Z,6.74
2022-11-29T19:56:14.178Z,6.54
2022-11-29T19:58:40.979Z,6.69
2022-11-29T20:01:11.819Z,6.72
2022-11-29T20:03:38.803Z,6.26
2022-11-29T20:06:05.461Z,6.57
2022-11-29T20:08:32.215Z,6.54
2022-11-29T20:11:10.864Z,6.60
2022-11-29T20:13:38.773Z,6.63
2022-11-29T20:16:09.724Z,6.66
2022-11-29T20:18:39.248Z,6.58
2022-11-29T20:21:08.157Z,6.69
2022-11-29T20:23:34.978Z,6.43
2022-11-29T20:26:01.951Z,6.07
2022-11-29T20:28:28.531Z,6.13
2022-11-29T20:30:56.649Z,6.27
2022-11-29T20:33:25.047Z,6.73
2022-11-29T20:36:06.665Z,6.51
2022-11-29T20:38:49.135Z,6.66
2022-11-29T20:41:24.836Z,6.50
2022-11-29T20:43:56.670Z,6.67
2022-11-29T20:46:25.587Z,6.67
2022-11-29T20:48:57.194Z,6.80
2022-11-29T20:51:32.903Z,6.78
2022-11-29T20:53:59.394Z,6.79
2022-11-29T20:56:27.476Z,6.60
2022-11-29T20:58:54.501Z,6.75
2022-11-29T21:01:21.023Z,6.36
2022-11-29T21:03:47.569Z,6.60
2022-11-29T21:06:14.128Z,6.73
2022-11-29T21:08:40.707Z,6.71
2022-11-29T21:11:10.290Z,6.61
2022-11-29T21:13:37.135Z,6.77
2022-11-29T21:16:04.663Z,6.67
2022-11-29T21:18:32.304Z,6.24
2022-11-29T21:21:24.660Z,6.37
2022-11-29T21:24:06.693Z,6.54
2022-11-29T21:26:41.925Z,6.14
2022-11-29T21:29:12.590Z,6.47
2022-11-29T21:31:39.543Z,6.45
2022-11-29T21:34:06.172Z,5.82
2022-11-29T21:36:32.660Z,6.36
2022-11-29T21:39:03.569Z,6.25
2022-11-29T21:41:31.588Z,6.03
2022-11-29T21:44:06.676Z,6.26
2022-11-29T21:46:34.754Z,6.25
2022-11-29T21:49:01.279Z,6.15
2022-11-29T21:51:27.762Z,5.86
2022-11-29T21:53:54.313Z,6.19
2022-11-29T21:56:20.893Z,6.18
2022-11-29T21:58:47.380Z,6.02
2022-11-29T22:01:19.013Z,6.24
2022-11-29T22:03:46.054Z,6.25
2022-11-29T22:06:20.484Z,6.20
2022-11-29T22:08:48.168Z,6.19
2022-11-29T22:11:30.389Z,5.80
2022-11-29T22:14:18.330Z,6.20
2022-11-29T22:16:51.997Z,5.58
2022-11-29T22:19:29.249Z,6.08
2022-11-29T22:22:00.995Z,5.98
2022-11-29T22:24:33.687Z,5.89
2022-11-29T22:27:01.590Z,5.62
2022-11-29T22:29:29.256Z,5.85
2022-11-29T22:31:57.480Z,5.80
2022-11-29T22:34:26.621Z,5.78
2022-11-29T22:36:53.331Z,5.51
2022-11-29T22:39:19.855Z,5.55
2022-11-29T22:41:52.263Z,5.71
2022-11-29T22:44:20.506Z,5.81
2022-11-29T22:46:47.061Z,5.86
2022-11-29T22:49:13.747Z,5.88
2022-11-29T22:51:40.420Z,5.76
2022-11-29T22:54:08.962Z,5.85
2022-11-29T22:56:38.529Z,5.86
2022-11-29T22:59:05.396Z,5.89
2022-11-29T23:01:34.840Z,5.79
2022-11-29T23:04:04.033Z,5.81
2022-11-29T23:06:33.119Z,5.69
2022-11-29T23:09:05.294Z,5.76
2022-11-29T23:11:31.851Z,5.73
2022-11-29T23:14:00.049Z,5.30
2022-11-29T23:16:28.488Z,5.11
2022-11-29T23:18:58.077Z,5.50
2022-11-29T23:21:33.296Z,5.77
2022-11-29T23:24:00.936Z,5.49
2022-11-29T23:26:33.890Z,5.79
2022-11-29T23:29:00.442Z,5.64
2022-11-29T23:31:27.124Z,5.82
2022-11-29T23:33:53.928Z,5.82
2022-11-29T23:36:20.754Z,5.42
2022-11-29T23:38:48.348Z,5.82
2022-11-29T23:41:14.901Z,5.43
2022-11-29T23:43:41.908Z,5.66
2022-11-29T23:46:12.201Z,5.64
2022-11-29T23:48:38.937Z,5.23
2022-11-29T23:51:05.509Z,5.56
2022-11-29T23:53:32.880Z,5.36
2022-11-29T23:56:01.604Z,5.40
2022-11-29T23:58:29.324Z,5.37
